sensor_id;sensor_type;location;lat;lon;timestamp;P1;durP1;ratioP1;P2;durP2;ratioP2
57247;SDS011;55809;46.618;10.764;2023-03-23T00:00:08;0.80;;;0.55;;
57247;SDS011;55809;46.618;10.764;2023-03-23T00:02:37;1.73;;;0.95;;
57247;SDS011;55809;46.618;10.764;2023-03-23T00:05:07;0.95;;;0.52;;
57247;SDS011;55809;46.618;10.764;2023-03-23T00:07:44;0.65;;;0.47;;
57247;SDS011;55809;46.618;10.764;2023-03-23T00:10:18;0.22;;;0.15;;
57247;SDS011;55809;46.618;10.764;2023-03-23T00:12:46;0.70;;;0.70;;
57247;SDS011;55809;46.618;10.764;2023-03-23T00:15:15;0.23;;;0.23;;
57247;SDS011;55809;46.618;10.764;2023-03-23T00:17:44;1.23;;;0.75;;
57247;SDS011;55809;46.618;10.764;2023-03-23T00:20:11;0.10;;;0.10;;
57247;SDS011;55809;46.618;10.764;2023-03-23T00:22:45;3.20;;;1.13;;
57247;SDS011;55809;46.618;10.764;2023-03-23T00:25:12;0.13;;;0.13;;
57247;SDS011;55809;46.618;10.764;2023-03-23T00:27:43;0.23;;;0.20;;
57247;SDS011;55809;46.618;10.764;2023-03-23T00:30:10;1.13;;;0.68;;
57247;SDS011;55809;46.618;10.764;2023-03-23T00:32:39;1.75;;;1.48;;
57247;SDS011;55809;46.618;10.764;2023-03-23T00:35:07;0.00;;;0.00;;
57247;SDS011;55809;46.618;10.764;2023-03-23T00:37:38;1.17;;;0.75;;
57247;SDS011;55809;46.618;10.764;2023-03-23T00:40:12;3.22;;;0.77;;
57247;SDS011;55809;46.618;10.764;2023-03-23T00:42:40;0.45;;;0.45;;
57247;SDS011;55809;46.618;10.764;2023-03-23T00:45:10;0.30;;;0.30;;
57247;SDS011;55809;46.618;10.764;2023-03-23T00:47:38;0.63;;;0.50;;
57247;SDS011;55809;46.618;10.764;2023-03-23T00:50:08;0.20;;;0.20;;
57247;SDS011;55809;46.618;10.764;2023-03-23T00:52:39;0.57;;;0.57;;
57247;SDS011;55809;46.618;10.764;2023-03-23T00:55:08;0.05;;;0.05;;
57247;SDS011;55809;46.618;10.764;2023-03-23T00:57:41;1.17;;;0.40;;
57247;SDS011;55809;46.618;10.764;2023-03-23T01:00:12;0.93;;;0.50;;
57247;SDS011;55809;46.618;10.764;2023-03-23T01:02:43;1.55;;;0.63;;
57247;SDS011;55809;46.618;10.764;2023-03-23T01:05:11;0.28;;;0.22;;
57247;SDS011;55809;46.618;10.764;2023-03-23T01:07:40;0.15;;;0.15;;
57247;SDS011;55809;46.618;10.764;2023-03-23T01:10:11;1.55;;;0.90;;
57247;SDS011;55809;46.618;10.764;2023-03-23T01:12:44;1.50;;;0.68;;
57247;SDS011;55809;46.618;10.764;2023-03-23T01:15:20;0.75;;;0.73;;
57247;SDS011;55809;46.618;10.764;2023-03-23T01:17:49;0.10;;;0.10;;
57247;SDS011;55809;46.618;10.764;2023-03-23T01:20:17;0.30;;;0.22;;
57247;SDS011;55809;46.618;10.764;2023-03-23T01:22:48;0.52;;;0.32;;
57247;SDS011;55809;46.618;10.764;2023-03-23T01:25:16;0.17;;;0.05;;
57247;SDS011;55809;46.618;10.764;2023-03-23T01:27:51;0.80;;;0.73;;
57247;SDS011;55809;46.618;10.764;2023-03-23T01:30:19;0.88;;;0.47;;
57247;SDS011;55809;46.618;10.764;2023-03-23T01:32:47;0.40;;;0.40;;
57247;SDS011;55809;46.618;10.764;2023-03-23T01:35:18;0.20;;;0.20;;
57247;SDS011;55809;46.618;10.764;2023-03-23T01:37:49;0.15;;;0.15;;
57247;SDS011;55809;46.618;10.764;2023-03-23T01:40:17;0.60;;;0.40;;
57247;SDS011;55809;46.618;10.764;2023-03-23T01:42:44;0.10;;;0.10;;
57247;SDS011;55809;46.618;10.764;2023-03-23T01:45:25;0.13;;;0.13;;
57247;SDS011;55809;46.618;10.764;2023-03-23T01:48:02;0.10;;;0.10;;
57247;SDS011;55809;46.618;10.764;2023-03-23T01:50:36;0.13;;;0.13;;
57247;SDS011;55809;46.618;10.764;2023-03-23T01:53:10;1.52;;;0.90;;
57247;SDS011;55809;46.618;10.764;2023-03-23T01:55:40;0.30;;;0.05;;
57247;SDS011;55809;46.618;10.764;2023-03-23T01:58:15;0.57;;;0.55;;
57247;SDS011;55809;46.618;10.764;2023-03-23T02:00:49;1.45;;;0.90;;
57247;SDS011;55809;46.618;10.764;2023-03-23T02:03:17;0.40;;;0.20;;
57247;SDS011;55809;46.618;10.764;2023-03-23T02:05:49;0.70;;;0.50;;
57247;SDS011;55809;46.618;10.764;2023-03-23T02:08:18;0.70;;;0.28;;
57247;SDS011;55809;46.618;10.764;2023-03-23T02:10:49;2.05;;;1.15;;
57247;SDS011;55809;46.618;10.764;2023-03-23T02:13:17;0.80;;;0.50;;
57247;SDS011;55809;46.618;10.764;2023-03-23T02:15:51;0.00;;;0.00;;
57247;SDS011;55809;46.618;10.764;2023-03-23T02:18:47;1.20;;;0.63;;
57247;SDS011;55809;46.618;10.764;2023-03-23T02:21:46;0.10;;;0.10;;
57247;SDS011;55809;46.618;10.764;2023-03-23T02:31:26;0.60;;;0.45;;
57247;SDS011;55809;46.618;10.764;2023-03-23T02:34:35;0.10;;;0.10;;
57247;SDS011;55809;46.618;10.764;2023-03-23T02:37:11;0.03;;;0.03;;
57247;SDS011;55809;46.618;10.764;2023-03-23T02:39:43;0.75;;;0.25;;
57247;SDS011;55809;46.618;10.764;2023-03-23T02:42:15;1.02;;;0.80;;
57247;SDS011;55809;46.618;10.764;2023-03-23T02:44:48;0.50;;;0.15;;
57247;SDS011;55809;46.618;10.764;2023-03-23T02:47:22;0.55;;;0.55;;
57247;SDS011;55809;46.618;10.764;2023-03-23T02:49:53;1.40;;;1.10;;
57247;SDS011;55809;46.618;10.764;2023-03-23T02:52:26;1.85;;;0.80;;
57247;SDS011;55809;46.618;10.764;2023-03-23T02:54:59;1.05;;;0.80;;
57247;SDS011;55809;46.618;10.764;2023-03-23T02:57:28;0.00;;;0.00;;
57247;SDS011;55809;46.618;10.764;2023-03-23T03:00:01;0.63;;;0.20;;
57247;SDS011;55809;46.618;10.764;2023-03-23T03:02:33;0.17;;;0.17;;
57247;SDS011;55809;46.618;10.764;2023-03-23T03:05:06;0.40;;;0.40;;
57247;SDS011;55809;46.618;10.764;2023-03-23T03:07:44;0.20;;;0.10;;
57247;SDS011;55809;46.618;10.764;2023-03-23T03:10:19;0.40;;;0.40;;
57247;SDS011;55809;46.618;10.764;2023-03-23T03:12:54;0.38;;;0.30;;
57247;SDS011;55809;46.618;10.764;2023-03-23T03:15:31;0.10;;;0.05;;
57247;SDS011;55809;46.618;10.764;2023-03-23T03:18:06;0.20;;;0.20;;
57247;SDS011;55809;46.618;10.764;2023-03-23T03:20:48;0.10;;;0.10;;
57247;SDS011;55809;46.618;10.764;2023-03-23T03:23:23;0.30;;;0.30;;
57247;SDS011;55809;46.618;10.764;2023-03-23T03:25:54;1.10;;;0.47;;
57247;SDS011;55809;46.618;10.764;2023-03-23T03:28:24;1.77;;;0.95;;
57247;SDS011;55809;46.618;10.764;2023-03-23T03:30:54;1.35;;;0.25;;
57247;SDS011;55809;46.618;10.764;2023-03-23T03:33:27;0.15;;;0.15;;
57247;SDS011;55809;46.618;10.764;2023-03-23T03:36:01;0.20;;;0.20;;
57247;SDS011;55809;46.618;10.764;2023-03-23T03:38:40;0.38;;;0.32;;
57247;SDS011;55809;46.618;10.764;2023-03-23T03:41:09;0.60;;;0.60;;
57247;SDS011;55809;46.618;10.764;2023-03-23T03:43:39;0.10;;;0.10;;
57247;SDS011;55809;46.618;10.764;2023-03-23T03:46:07;0.00;;;0.00;;
57247;SDS011;55809;46.618;10.764;2023-03-23T03:48:35;0.20;;;0.20;;
57247;SDS011;55809;46.618;10.764;2023-03-23T03:53:36;0.28;;;0.28;;
57247;SDS011;55809;46.618;10.764;2023-03-23T03:56:05;0.00;;;0.00;;
57247;SDS011;55809;46.618;10.764;2023-03-23T03:58:34;0.40;;;0.40;;
57247;SDS011;55809;46.618;10.764;2023-03-23T04:01:02;1.05;;;0.30;;
57247;SDS011;55809;46.618;10.764;2023-03-23T04:03:31;0.10;;;0.00;;
57247;SDS011;55809;46.618;10.764;2023-03-23T04:05:59;1.23;;;0.73;;
57247;SDS011;55809;46.618;10.764;2023-03-23T04:08:30;0.10;;;0.10;;
57247;SDS011;55809;46.618;10.764;2023-03-23T04:13:26;0.00;;;0.00;;
57247;SDS011;55809;46.618;10.764;2023-03-23T04:15:54;0.38;;;0.38;;
57247;SDS011;55809;46.618;10.764;2023-03-23T04:18:21;0.32;;;0.32;;
57247;SDS011;55809;46.618;10.764;2023-03-23T04:20:52;0.23;;;0.17;;
57247;SDS011;55809;46.618;10.764;2023-03-23T04:23:27;0.13;;;0.13;;
57247;SDS011;55809;46.618;10.764;2023-03-23T04:26:00;1.20;;;0.82;;
57247;SDS011;55809;46.618;10.764;2023-03-23T04:28:29;1.00;;;0.90;;
57247;SDS011;55809;46.618;10.764;2023-03-23T04:30:58;0.05;;;0.05;;
57247;SDS011;55809;46.618;10.764;2023-03-23T04:33:28;0.15;;;0.15;;
57247;SDS011;55809;46.618;10.764;2023-03-23T04:35:59;0.20;;;0.20;;
57247;SDS011;55809;46.618;10.764;2023-03-23T04:41:01;0.90;;;0.38;;
57247;SDS011;55809;46.618;10.764;2023-03-23T04:43:30;0.10;;;0.10;;
57247;SDS011;55809;46.618;10.764;2023-03-23T04:46:08;0.20;;;0.20;;
57247;SDS011;55809;46.618;10.764;2023-03-23T04:48:36;0.22;;;0.10;;
57247;SDS011;55809;46.618;10.764;2023-03-23T04:51:04;0.68;;;0.50;;
57247;SDS011;55809;46.618;10.764;2023-03-23T04:53:33;1.00;;;0.95;;
57247;SDS011;55809;46.618;10.764;2023-03-23T04:56:05;0.25;;;0.17;;
57247;SDS011;55809;46.618;10.764;2023-03-23T04:58:32;0.35;;;0.35;;
57247;SDS011;55809;46.618;10.764;2023-03-23T05:01:01;0.22;;;0.17;;
57247;SDS011;55809;46.618;10.764;2023-03-23T05:03:29;0.00;;;0.00;;
57247;SDS011;55809;46.618;10.764;2023-03-23T05:06:00;0.30;;;0.30;;
57247;SDS011;55809;46.618;10.764;2023-03-23T05:08:30;0.45;;;0.32;;
57247;SDS011;55809;46.618;10.764;2023-03-23T05:11:04;0.20;;;0.13;;
57247;SDS011;55809;46.618;10.764;2023-03-23T05:13:33;0.45;;;0.45;;
57247;SDS011;55809;46.618;10.764;2023-03-23T05:16:03;0.05;;;0.05;;
57247;SDS011;55809;46.618;10.764;2023-03-23T05:21:00;0.30;;;0.30;;
57247;SDS011;55809;46.618;10.764;2023-03-23T05:23:28;0.17;;;0.15;;
57247;SDS011;55809;46.618;10.764;2023-03-23T05:25:57;0.75;;;0.32;;
57247;SDS011;55809;46.618;10.764;2023-03-23T05:28:30;0.40;;;0.30;;
57247;SDS011;55809;46.618;10.764;2023-03-23T05:30:58;0.10;;;0.10;;
57247;SDS011;55809;46.618;10.764;2023-03-23T05:33:25;0.85;;;0.82;;
57247;SDS011;55809;46.618;10.764;2023-03-23T05:35:52;0.00;;;0.00;;
57247;SDS011;55809;46.618;10.764;2023-03-23T05:38:19;0.20;;;0.20;;
57247;SDS011;55809;46.618;10.764;2023-03-23T05:40:47;0.45;;;0.45;;
57247;SDS011;55809;46.618;10.764;2023-03-23T05:43:14;0.35;;;0.28;;
57247;SDS011;55809;46.618;10.764;2023-03-23T05:45:42;0.38;;;0.38;;
57247;SDS011;55809;46.618;10.764;2023-03-23T05:48:10;0.45;;;0.20;;
57247;SDS011;55809;46.618;10.764;2023-03-23T05:50:37;0.52;;;0.30;;
57247;SDS011;55809;46.618;10.764;2023-03-23T05:53:04;0.77;;;0.65;;
57247;SDS011;55809;46.618;10.764;2023-03-23T05:55:31;0.10;;;0.10;;
57247;SDS011;55809;46.618;10.764;2023-03-23T05:57:58;0.88;;;0.63;;
57247;SDS011;55809;46.618;10.764;2023-03-23T06:00:25;0.10;;;0.10;;
57247;SDS011;55809;46.618;10.764;2023-03-23T06:02:56;0.60;;;0.15;;
57247;SDS011;55809;46.618;10.764;2023-03-23T06:05:23;0.20;;;0.20;;
57247;SDS011;55809;46.618;10.764;2023-03-23T06:07:51;0.00;;;0.00;;
57247;SDS011;55809;46.618;10.764;2023-03-23T06:10:18;0.43;;;0.43;;
57247;SDS011;55809;46.618;10.764;2023-03-23T06:12:46;0.00;;;0.00;;
57247;SDS011;55809;46.618;10.764;2023-03-23T06:15:13;0.85;;;0.85;;
57247;SDS011;55809;46.618;10.764;2023-03-23T06:17:40;2.55;;;0.63;;
57247;SDS011;55809;46.618;10.764;2023-03-23T06:20:09;0.88;;;0.88;;
57247;SDS011;55809;46.618;10.764;2023-03-23T06:22:36;2.00;;;0.47;;
57247;SDS011;55809;46.618;10.764;2023-03-23T06:25:04;0.60;;;0.50;;
57247;SDS011;55809;46.618;10.764;2023-03-23T06:27:32;0.98;;;0.82;;
57247;SDS011;55809;46.618;10.764;2023-03-23T06:30:01;1.55;;;0.70;;
57247;SDS011;55809;46.618;10.764;2023-03-23T06:32:30;1.15;;;1.05;;
57247;SDS011;55809;46.618;10.764;2023-03-23T06:35:10;0.35;;;0.35;;
57247;SDS011;55809;46.618;10.764;2023-03-23T06:37:38;0.98;;;0.35;;
57247;SDS011;55809;46.618;10.764;2023-03-23T06:40:09;0.20;;;0.20;;
57247;SDS011;55809;46.618;10.764;2023-03-23T06:42:37;1.90;;;0.38;;
57247;SDS011;55809;46.618;10.764;2023-03-23T06:45:05;0.85;;;0.68;;
57247;SDS011;55809;46.618;10.764;2023-03-23T06:47:35;0.68;;;0.65;;
57247;SDS011;55809;46.618;10.764;2023-03-23T06:50:06;1.98;;;0.90;;
57247;SDS011;55809;46.618;10.764;2023-03-23T06:52:50;1.77;;;1.40;;
57247;SDS011;55809;46.618;10.764;2023-03-23T06:55:19;0.73;;;0.73;;
57247;SDS011;55809;46.618;10.764;2023-03-23T06:57:47;0.00;;;0.00;;
57247;SDS011;55809;46.618;10.764;2023-03-23T07:00:18;0.88;;;0.45;;
57247;SDS011;55809;46.618;10.764;2023-03-23T07:02:48;0.63;;;0.35;;
57247;SDS011;55809;46.618;10.764;2023-03-23T07:05:16;0.57;;;0.47;;
57247;SDS011;55809;46.618;10.764;2023-03-23T07:07:51;0.50;;;0.38;;
57247;SDS011;55809;46.618;10.764;2023-03-23T07:10:21;1.52;;;0.25;;
57247;SDS011;55809;46.618;10.764;2023-03-23T07:12:50;0.70;;;0.43;;
57247;SDS011;55809;46.618;10.764;2023-03-23T07:15:22;0.60;;;0.60;;
57247;SDS011;55809;46.618;10.764;2023-03-23T07:17:51;0.35;;;0.35;;
57247;SDS011;55809;46.618;10.764;2023-03-23T07:20:19;0.33;;;0.30;;
57247;SDS011;55809;46.618;10.764;2023-03-23T07:22:49;0.70;;;0.47;;
57247;SDS011;55809;46.618;10.764;2023-03-23T07:25:17;0.10;;;0.05;;
57247;SDS011;55809;46.618;10.764;2023-03-23T07:27:46;0.95;;;0.88;;
57247;SDS011;55809;46.618;10.764;2023-03-23T07:30:15;0.80;;;0.75;;
57247;SDS011;55809;46.618;10.764;2023-03-23T07:32:43;0.90;;;0.57;;
57247;SDS011;55809;46.618;10.764;2023-03-23T07:35:11;1.20;;;0.77;;
57247;SDS011;55809;46.618;10.764;2023-03-23T07:37:42;1.02;;;0.60;;
57247;SDS011;55809;46.618;10.764;2023-03-23T07:40:17;0.32;;;0.32;;
57247;SDS011;55809;46.618;10.764;2023-03-23T07:42:51;1.30;;;1.13;;
57247;SDS011;55809;46.618;10.764;2023-03-23T07:45:21;0.95;;;0.60;;
57247;SDS011;55809;46.618;10.764;2023-03-23T07:47:49;0.50;;;0.50;;
57247;SDS011;55809;46.618;10.764;2023-03-23T07:50:19;0.70;;;0.30;;
57247;SDS011;55809;46.618;10.764;2023-03-23T07:52:53;0.50;;;0.30;;
57247;SDS011;55809;46.618;10.764;2023-03-23T07:55:24;0.57;;;0.17;;
57247;SDS011;55809;46.618;10.764;2023-03-23T07:57:53;2.03;;;0.57;;
57247;SDS011;55809;46.618;10.764;2023-03-23T08:00:24;0.40;;;0.40;;
57247;SDS011;55809;46.618;10.764;2023-03-23T08:03:04;0.60;;;0.60;;
57247;SDS011;55809;46.618;10.764;2023-03-23T08:05:34;1.75;;;1.63;;
57247;SDS011;55809;46.618;10.764;2023-03-23T08:08:02;0.50;;;0.47;;
57247;SDS011;55809;46.618;10.764;2023-03-23T08:10:32;1.00;;;0.90;;
57247;SDS011;55809;46.618;10.764;2023-03-23T08:13:01;1.38;;;0.85;;
57247;SDS011;55809;46.618;10.764;2023-03-23T08:15:31;1.02;;;0.75;;
57247;SDS011;55809;46.618;10.764;2023-03-23T08:18:01;1.15;;;0.85;;
57247;SDS011;55809;46.618;10.764;2023-03-23T08:20:29;2.08;;;1.35;;
57247;SDS011;55809;46.618;10.764;2023-03-23T08:23:01;0.80;;;0.75;;
57247;SDS011;55809;46.618;10.764;2023-03-23T08:25:36;1.23;;;0.90;;
57247;SDS011;55809;46.618;10.764;2023-03-23T08:28:06;1.85;;;0.80;;
57247;SDS011;55809;46.618;10.764;2023-03-23T08:30:35;1.35;;;0.98;;
57247;SDS011;55809;46.618;10.764;2023-03-23T08:33:06;1.10;;;0.60;;
57247;SDS011;55809;46.618;10.764;2023-03-23T08:35:35;1.05;;;0.95;;
57247;SDS011;55809;46.618;10.764;2023-03-23T08:38:04;1.05;;;0.85;;
57247;SDS011;55809;46.618;10.764;2023-03-23T08:40:33;2.75;;;1.52;;
57247;SDS011;55809;46.618;10.764;2023-03-23T08:43:02;2.42;;;1.38;;
57247;SDS011;55809;46.618;10.764;2023-03-23T08:45:31;1.00;;;0.93;;
57247;SDS011;55809;46.618;10.764;2023-03-23T08:47:59;3.72;;;1.67;;
57247;SDS011;55809;46.618;10.764;2023-03-23T08:50:28;2.55;;;1.27;;
57247;SDS011;55809;46.618;10.764;2023-03-23T08:52:56;2.33;;;1.58;;
57247;SDS011;55809;46.618;10.764;2023-03-23T08:55:24;0.75;;;0.70;;
57247;SDS011;55809;46.618;10.764;2023-03-23T08:57:54;1.13;;;0.80;;
57247;SDS011;55809;46.618;10.764;2023-03-23T09:00:22;3.78;;;2.03;;
57247;SDS011;55809;46.618;10.764;2023-03-23T09:02:52;1.83;;;1.27;;
57247;SDS011;55809;46.618;10.764;2023-03-23T09:05:24;1.88;;;1.48;;
57247;SDS011;55809;46.618;10.764;2023-03-23T09:07:55;1.30;;;0.98;;
57247;SDS011;55809;46.618;10.764;2023-03-23T09:10:25;2.38;;;1.05;;
57247;SDS011;55809;46.618;10.764;2023-03-23T09:12:58;2.35;;;1.65;;
57247;SDS011;55809;46.618;10.764;2023-03-23T09:15:25;1.75;;;1.50;;
57247;SDS011;55809;46.618;10.764;2023-03-23T09:17:53;1.10;;;0.88;;
57247;SDS011;55809;46.618;10.764;2023-03-23T09:20:35;2.67;;;1.00;;
57247;SDS011;55809;46.618;10.764;2023-03-23T09:23:04;3.55;;;1.27;;
57247;SDS011;55809;46.618;10.764;2023-03-23T09:25:32;1.58;;;1.17;;
57247;SDS011;55809;46.618;10.764;2023-03-23T09:28:07;1.92;;;0.93;;
57247;SDS011;55809;46.618;10.764;2023-03-23T09:30:36;2.05;;;1.23;;
57247;SDS011;55809;46.618;10.764;2023-03-23T09:33:07;2.22;;;1.17;;
57247;SDS011;55809;46.618;10.764;2023-03-23T09:35:38;1.55;;;0.98;;
57247;SDS011;55809;46.618;10.764;2023-03-23T09:38:08;3.97;;;1.90;;
57247;SDS011;55809;46.618;10.764;2023-03-23T09:40:40;1.30;;;1.05;;
57247;SDS011;55809;46.618;10.764;2023-03-23T09:43:27;4.03;;;2.45;;
57247;SDS011;55809;46.618;10.764;2023-03-23T09:46:07;2.35;;;1.52;;
57247;SDS011;55809;46.618;10.764;2023-03-23T09:48:49;0.75;;;0.70;;
57247;SDS011;55809;46.618;10.764;2023-03-23T09:51:24;2.92;;;2.03;;
57247;SDS011;55809;46.618;10.764;2023-03-23T09:54:00;3.22;;;2.33;;
57247;SDS011;55809;46.618;10.764;2023-03-23T09:56:33;1.45;;;1.13;;
57247;SDS011;55809;46.618;10.764;2023-03-23T09:59:07;2.45;;;1.77;;
57247;SDS011;55809;46.618;10.764;2023-03-23T10:01:43;3.22;;;2.13;;
57247;SDS011;55809;46.618;10.764;2023-03-23T10:04:16;3.58;;;1.73;;
57247;SDS011;55809;46.618;10.764;2023-03-23T10:06:53;1.95;;;1.63;;
57247;SDS011;55809;46.618;10.764;2023-03-23T10:09:27;3.42;;;2.47;;
57247;SDS011;55809;46.618;10.764;2023-03-23T10:14:44;2.08;;;0.98;;
57247;SDS011;55809;46.618;10.764;2023-03-23T10:17:26;3.75;;;2.33;;
57247;SDS011;55809;46.618;10.764;2023-03-23T10:20:00;3.33;;;2.15;;
57247;SDS011;55809;46.618;10.764;2023-03-23T10:22:45;2.95;;;2.00;;
57247;SDS011;55809;46.618;10.764;2023-03-23T10:25:18;2.55;;;1.95;;
57247;SDS011;55809;46.618;10.764;2023-03-23T10:27:50;3.80;;;2.28;;
57247;SDS011;55809;46.618;10.764;2023-03-23T10:30:29;1.40;;;1.25;;
57247;SDS011;55809;46.618;10.764;2023-03-23T10:33:01;2.45;;;1.23;;
57247;SDS011;55809;46.618;10.764;2023-03-23T10:35:36;2.70;;;2.03;;
57247;SDS011;55809;46.618;10.764;2023-03-23T10:38:10;2.83;;;1.73;;
57247;SDS011;55809;46.618;10.764;2023-03-23T10:40:46;3.60;;;2.60;;
57247;SDS011;55809;46.618;10.764;2023-03-23T10:43:17;5.50;;;2.80;;
57247;SDS011;55809;46.618;10.764;2023-03-23T10:45:54;3.90;;;1.67;;
57247;SDS011;55809;46.618;10.764;2023-03-23T10:48:28;3.50;;;2.08;;
57247;SDS011;55809;46.618;10.764;2023-03-23T10:50:59;3.85;;;2.22;;
57247;SDS011;55809;46.618;10.764;2023-03-23T10:53:32;4.18;;;3.13;;
57247;SDS011;55809;46.618;10.764;2023-03-23T10:56:02;2.55;;;1.65;;
57247;SDS011;55809;46.618;10.764;2023-03-23T10:58:32;2.73;;;2.33;;
57247;SDS011;55809;46.618;10.764;2023-03-23T11:03:51;4.97;;;3.33;;
57247;SDS011;55809;46.618;10.764;2023-03-23T11:06:19;4.18;;;2.40;;
57247;SDS011;55809;46.618;10.764;2023-03-23T11:08:52;4.57;;;2.63;;
57247;SDS011;55809;46.618;10.764;2023-03-23T11:11:24;4.70;;;2.88;;
57247;SDS011;55809;46.618;10.764;2023-03-23T11:14:00;4.22;;;2.80;;
57247;SDS011;55809;46.618;10.764;2023-03-23T11:16:33;5.32;;;3.10;;
57247;SDS011;55809;46.618;10.764;2023-03-23T11:19:11;5.22;;;2.75;;
57247;SDS011;55809;46.618;10.764;2023-03-23T11:21:45;4.60;;;3.53;;
57247;SDS011;55809;46.618;10.764;2023-03-23T11:24:17;3.85;;;1.60;;
57247;SDS011;55809;46.618;10.764;2023-03-23T11:26:46;4.20;;;2.97;;
57247;SDS011;55809;46.618;10.764;2023-03-23T11:29:17;4.68;;;2.85;;
57247;SDS011;55809;46.618;10.764;2023-03-23T11:31:51;4.47;;;1.95;;
57247;SDS011;55809;46.618;10.764;2023-03-23T11:34:32;4.85;;;2.75;;
57247;SDS011;55809;46.618;10.764;2023-03-23T11:37:03;3.67;;;2.05;;
57247;SDS011;55809;46.618;10.764;2023-03-23T11:39:46;5.07;;;2.85;;
57247;SDS011;55809;46.618;10.764;2023-03-23T11:42:19;4.78;;;2.65;;
57247;SDS011;55809;46.618;10.764;2023-03-23T11:44:53;5.57;;;2.90;;
57247;SDS011;55809;46.618;10.764;2023-03-23T11:47:27;2.42;;;2.13;;
57247;SDS011;55809;46.618;10.764;2023-03-23T11:50:04;3.85;;;2.30;;
57247;SDS011;55809;46.618;10.764;2023-03-23T11:52:39;2.97;;;2.55;;
57247;SDS011;55809;46.618;10.764;2023-03-23T11:55:15;3.88;;;1.55;;
57247;SDS011;55809;46.618;10.764;2023-03-23T11:57:50;3.83;;;1.88;;
57247;SDS011;55809;46.618;10.764;2023-03-23T12:00:22;5.63;;;3.85;;
57247;SDS011;55809;46.618;10.764;2023-03-23T12:02:55;8.18;;;2.97;;
57247;SDS011;55809;46.618;10.764;2023-03-23T12:05:45;4.32;;;3.55;;
57247;SDS011;55809;46.618;10.764;2023-03-23T12:08:22;3.30;;;2.28;;
57247;SDS011;55809;46.618;10.764;2023-03-23T12:10:59;2.05;;;1.58;;
57247;SDS011;55809;46.618;10.764;2023-03-23T12:13:40;1.50;;;1.27;;
57247;SDS011;55809;46.618;10.764;2023-03-23T12:16:25;4.07;;;2.45;;
57247;SDS011;55809;46.618;10.764;2023-03-23T12:19:05;2.60;;;1.70;;
57247;SDS011;55809;46.618;10.764;2023-03-23T12:21:45;5.07;;;2.15;;
57247;SDS011;55809;46.618;10.764;2023-03-23T12:24:25;4.75;;;2.78;;
57247;SDS011;55809;46.618;10.764;2023-03-23T12:27:07;2.42;;;1.38;;
57247;SDS011;55809;46.618;10.764;2023-03-23T12:29:45;3.38;;;2.08;;
57247;SDS011;55809;46.618;10.764;2023-03-23T12:32:56;4.40;;;2.47;;
57247;SDS011;55809;46.618;10.764;2023-03-23T12:35:50;1.15;;;0.70;;
57247;SDS011;55809;46.618;10.764;2023-03-23T12:38:37;3.25;;;1.40;;
57247;SDS011;55809;46.618;10.764;2023-03-23T12:41:15;3.42;;;1.13;;
57247;SDS011;55809;46.618;10.764;2023-03-23T12:43:48;3.55;;;1.60;;
57247;SDS011;55809;46.618;10.764;2023-03-23T12:49:17;1.98;;;1.27;;
57247;SDS011;55809;46.618;10.764;2023-03-23T12:51:51;5.13;;;2.25;;
57247;SDS011;55809;46.618;10.764;2023-03-23T12:54:24;2.42;;;2.00;;
57247;SDS011;55809;46.618;10.764;2023-03-23T12:56:58;0.95;;;0.85;;
57247;SDS011;55809;46.618;10.764;2023-03-23T12:59:30;2.50;;;1.92;;
57247;SDS011;55809;46.618;10.764;2023-03-23T13:02:05;2.22;;;1.55;;
57247;SDS011;55809;46.618;10.764;2023-03-23T13:04:40;2.58;;;1.25;;
57247;SDS011;55809;46.618;10.764;2023-03-23T13:07:14;2.63;;;1.55;;
57247;SDS011;55809;46.618;10.764;2023-03-23T13:09:46;1.80;;;1.42;;
57247;SDS011;55809;46.618;10.764;2023-03-23T13:12:18;1.15;;;0.88;;
57247;SDS011;55809;46.618;10.764;2023-03-23T13:14:49;2.20;;;1.45;;
57247;SDS011;55809;46.618;10.764;2023-03-23T13:17:25;2.80;;;2.30;;
57247;SDS011;55809;46.618;10.764;2023-03-23T13:20:01;2.67;;;1.27;;
57247;SDS011;55809;46.618;10.764;2023-03-23T13:22:49;1.50;;;0.75;;
57247;SDS011;55809;46.618;10.764;2023-03-23T13:25:35;3.40;;;2.35;;
57247;SDS011;55809;46.618;10.764;2023-03-23T13:28:14;1.63;;;1.38;;
57247;SDS011;55809;46.618;10.764;2023-03-23T13:30:52;1.73;;;1.42;;
57247;SDS011;55809;46.618;10.764;2023-03-23T13:33:21;1.83;;;1.20;;
57247;SDS011;55809;46.618;10.764;2023-03-23T13:35:49;0.95;;;0.68;;
57247;SDS011;55809;46.618;10.764;2023-03-23T13:38:20;3.40;;;2.03;;
57247;SDS011;55809;46.618;10.764;2023-03-23T13:40:49;0.85;;;0.85;;
57247;SDS011;55809;46.618;10.764;2023-03-23T13:43:25;1.95;;;1.40;;
57247;SDS011;55809;46.618;10.764;2023-03-23T13:45:54;2.80;;;1.25;;
57247;SDS011;55809;46.618;10.764;2023-03-23T13:48:39;2.88;;;1.35;;
57247;SDS011;55809;46.618;10.764;2023-03-23T13:51:23;3.25;;;1.80;;
57247;SDS011;55809;46.618;10.764;2023-03-23T13:54:05;1.75;;;0.75;;
57247;SDS011;55809;46.618;10.764;2023-03-23T13:56:52;1.92;;;1.08;;
57247;SDS011;55809;46.618;10.764;2023-03-23T13:59:34;2.58;;;1.85;;
57247;SDS011;55809;46.618;10.764;2023-03-23T14:02:28;1.90;;;1.10;;
57247;SDS011;55809;46.618;10.764;2023-03-23T14:05:08;1.10;;;0.93;;
57247;SDS011;55809;46.618;10.764;2023-03-23T14:07:53;1.27;;;0.98;;
57247;SDS011;55809;46.618;10.764;2023-03-23T14:10:25;2.85;;;1.83;;
57247;SDS011;55809;46.618;10.764;2023-03-23T14:13:00;1.67;;;1.17;;
57247;SDS011;55809;46.618;10.764;2023-03-23T14:15:28;1.02;;;0.88;;
57247;SDS011;55809;46.618;10.764;2023-03-23T14:17:56;1.33;;;0.93;;
57247;SDS011;55809;46.618;10.764;2023-03-23T14:20:29;0.98;;;0.82;;
57247;SDS011;55809;46.618;10.764;2023-03-23T14:22:58;2.08;;;1.70;;
57247;SDS011;55809;46.618;10.764;2023-03-23T14:25:29;2.67;;;1.33;;
57247;SDS011;55809;46.618;10.764;2023-03-23T14:27:57;3.88;;;1.52;;
57247;SDS011;55809;46.618;10.764;2023-03-23T14:30:25;0.68;;;0.65;;
57247;SDS011;55809;46.618;10.764;2023-03-23T14:32:54;1.50;;;1.02;;
57247;SDS011;55809;46.618;10.764;2023-03-23T14:35:32;0.57;;;0.57;;
57247;SDS011;55809;46.618;10.764;2023-03-23T14:38:00;2.17;;;1.10;;
57247;SDS011;55809;46.618;10.764;2023-03-23T14:40:29;1.45;;;1.15;;
57247;SDS011;55809;46.618;10.764;2023-03-23T14:42:57;2.05;;;1.00;;
57247;SDS011;55809;46.618;10.764;2023-03-23T14:45:25;1.70;;;1.27;;
57247;SDS011;55809;46.618;10.764;2023-03-23T14:47:54;2.65;;;1.40;;
57247;SDS011;55809;46.618;10.764;2023-03-23T14:50:25;2.38;;;1.92;;
57247;SDS011;55809;46.618;10.764;2023-03-23T14:52:59;1.92;;;1.35;;
57247;SDS011;55809;46.618;10.764;2023-03-23T14:55:30;1.15;;;0.90;;
57247;SDS011;55809;46.618;10.764;2023-03-23T14:58:05;3.20;;;2.40;;
57247;SDS011;55809;46.618;10.764;2023-03-23T15:00:34;1.45;;;1.13;;
57247;SDS011;55809;46.618;10.764;2023-03-23T15:03:05;3.13;;;1.80;;
57247;SDS011;55809;46.618;10.764;2023-03-23T15:05:37;1.92;;;1.05;;
57247;SDS011;55809;46.618;10.764;2023-03-23T15:08:11;4.47;;;1.45;;
57247;SDS011;55809;46.618;10.764;2023-03-23T15:10:42;2.22;;;1.55;;
57247;SDS011;55809;46.618;10.764;2023-03-23T15:13:19;0.68;;;0.60;;
57247;SDS011;55809;46.618;10.764;2023-03-23T15:15:46;0.88;;;0.52;;
57247;SDS011;55809;46.618;10.764;2023-03-23T15:18:19;2.70;;;1.50;;
57247;SDS011;55809;46.618;10.764;2023-03-23T15:21:07;2.50;;;1.00;;
57247;SDS011;55809;46.618;10.764;2023-03-23T15:23:35;2.05;;;1.35;;
57247;SDS011;55809;46.618;10.764;2023-03-23T15:26:22;1.95;;;1.02;;
57247;SDS011;55809;46.618;10.764;2023-03-23T15:28:59;1.10;;;1.00;;